Time;durP1;ratioP1;P1;durP2;ratioP2;P2;SDS_P1;SDS_P2;PMS_P1;PMS_P2;Temp;Humidity;BMP_temperature;BMP_pressure;BME280_temperature;BME280_humidity;BME280_pressure;Samples;Min_cycle;Max_cycle;Signal;HPM_P1;HPM_P2
2023/09/02 00:02:05;;;;;;;;;;;13.00;99.90;;;;;;7324274;19;9363;-73
2023/09/02 00:04:35;;;;;;;;;;;13.00;99.90;;;;;;7324712;19;9415;-73
2023/09/02 00:07:04;;;;;;;;;;;12.90;99.90;;;;;;7323367;19;9263;-73
2023/09/02 00:09:55;;;;;;;;;;;12.90;99.90;;;;;;7322487;19;9320;-73
2023/09/02 00:12:24;;;;;;;;;;;12.90;99.90;;;;;;7324093;19;9213;-73
2023/09/02 00:14:54;;;;;;;;;;;12.80;99.90;;;;;;7322399;19;9257;-73
2023/09/02 00:17:23;;;;;;;;;;;12.90;99.90;;;;;;7324453;19;9315;-73
2023/09/02 00:19:52;;;;;;;;;;;12.80;99.90;;;;;;7323671;19;9262;-73
2023/09/02 00:22:21;;;;;;;;;;;12.80;99.90;;;;;;7324029;19;9595;-73
2023/09/02 00:24:50;;;;;;;;;;;12.70;99.90;;;;;;7323785;19;9244;-73
2023/09/02 00:27:21;;;;;;;;;;;12.70;99.90;;;;;;7323908;19;9247;-73
2023/09/02 00:29:50;;;;;;;;;;;12.70;99.90;;;;;;7323963;19;9243;-73
2023/09/02 00:32:19;;;;;;;;;;;12.70;99.90;;;;;;7323307;19;9265;-73
2023/09/02 00:34:50;;;;;;;;;;;12.70;99.90;;;;;;7323205;19;11318;-73
2023/09/02 00:37:19;;;;;;;;;;;12.70;99.90;;;;;;7324092;19;9173;-74
2023/09/02 00:39:52;;;;;;;;;;;12.80;99.90;;;;;;7322911;19;10616;-73
2023/09/02 00:42:26;;;;;;;;;;;12.80;99.90;;;;;;7323326;19;9278;-73
2023/09/02 00:44:55;;;;;;;;;;;12.80;99.90;;;;;;7323373;19;9201;-74
2023/09/02 00:47:25;;;;;;;;;;;12.80;99.90;;;;;;7323487;19;9471;-73
2023/09/02 00:49:54;;;;;;;;;;;12.70;99.90;;;;;;7322832;19;9228;-73
2023/09/02 00:52:23;;;;;;;;;;;12.70;99.90;;;;;;7322747;19;9769;-73
2023/09/02 00:54:52;;;;;;;;;;;12.60;99.90;;;;;;7322453;19;9374;-73
2023/09/02 00:57:24;;;;;;;;;;;12.60;99.90;;;;;;7323286;19;9191;-74
2023/09/02 00:59:53;;;;;;;;;;;12.60;99.90;;;;;;7323503;19;9136;-73
2023/09/02 01:02:24;;;;;;;;;;;12.50;99.90;;;;;;7323202;19;9293;-73
2023/09/02 01:04:54;;;;;;;;;;;12.60;99.90;;;;;;7323331;19;9170;-73
2023/09/02 01:07:24;;;;;;;;;;;12.50;99.90;;;;;;7322311;19;9212;-74
2023/09/02 01:09:53;;;;;;;;;;;12.50;99.90;;;;;;7321830;19;9338;-73
2023/09/02 01:12:25;;;;;;;;;;;12.60;99.90;;;;;;7322598;19;9292;-73
2023/09/02 01:14:54;;;;;;;;;;;12.60;99.90;;;;;;7322295;19;9240;-73
2023/09/02 01:17:23;;;;;;;;;;;12.60;99.90;;;;;;7322546;19;9230;-73
2023/09/02 01:19:56;;;;;;;;;;;12.60;99.90;;;;;;7320966;19;9244;-73
2023/09/02 01:22:52;;;;;;;;;;;12.60;99.90;;;;;;7321494;19;9240;-73
2023/09/02 01:25:41;;;;;;;;;;;12.60;99.90;;;;;;7318743;19;9284;-73
2023/09/02 01:28:18;;;;;;;;;;;12.60;99.90;;;;;;7322007;19;9492;-73
2023/09/02 01:30:53;;;;;;;;;;;12.50;99.90;;;;;;7320447;19;9302;-73
2023/09/02 01:33:27;;;;;;;;;;;12.50;99.90;;;;;;7321688;19;9261;-73
2023/09/02 01:35:59;;;;;;;;;;;12.50;99.90;;;;;;7321236;19;9254;-73
2023/09/02 01:38:50;;;;;;;;;;;12.50;99.90;;;;;;7319425;19;9486;-73
2023/09/02 01:41:20;;;;;;;;;;;12.50;99.90;;;;;;7320556;19;11409;-73
2023/09/02 01:43:55;;;;;;;;;;;12.70;99.90;;;;;;7321105;19;10161;-73
2023/09/02 01:46:45;;;;;;;;;;;12.70;99.90;;;;;;7319847;19;9306;-73
2023/09/02 01:49:15;;;;;;;;;;;12.80;99.90;;;;;;7321270;19;9455;-73
2023/09/02 01:51:45;;;;;;;;;;;12.80;99.90;;;;;;7321340;19;9417;-73
2023/09/02 01:54:15;;;;;;;;;;;12.70;99.90;;;;;;7320818;19;9252;-73
2023/09/02 01:56:45;;;;;;;;;;;12.70;99.90;;;;;;7320611;19;9221;-73
2023/09/02 01:59:16;;;;;;;;;;;12.70;99.90;;;;;;7320391;19;8945;-73
2023/09/02 02:01:46;;;;;;;;;;;12.70;99.90;;;;;;7320885;19;9249;-74
2023/09/02 02:04:21;;;;;;;;;;;12.60;99.90;;;;;;7319932;19;9476;-73
2023/09/02 02:06:57;;;;;;;;;;;12.60;99.90;;;;;;7319684;19;9642;-73
2023/09/02 02:09:35;;;;;;;;;;;12.70;99.90;;;;;;7320996;19;9768;-73
2023/09/02 02:12:06;;;;;;;;;;;12.70;99.90;;;;;;7320128;19;9220;-73
2023/09/02 02:14:38;;;;;;;;;;;12.70;99.90;;;;;;7318077;19;9712;-74
2023/09/02 02:17:08;;;;;;;;;;;12.70;99.90;;;;;;7320011;19;9220;-73
2023/09/02 02:19:38;;;;;;;;;;;12.60;99.90;;;;;;7319958;19;9321;-73
2023/09/02 02:22:08;;;;;;;;;;;12.60;99.90;;;;;;7320409;19;9352;-73
2023/09/02 02:24:37;;;;;;;;;;;12.50;99.90;;;;;;7319610;19;9351;-73
2023/09/02 02:27:07;;;;;;;;;;;12.50;99.90;;;;;;7320267;19;9593;-73
2023/09/02 02:29:58;;;;;;;;;;;12.50;99.90;;;;;;7317591;19;9596;-73
2023/09/02 02:32:28;;;;;;;;;;;12.50;99.90;;;;;;7319816;19;9197;-73
2023/09/02 02:34:56;;;;;;;;;;;12.50;99.90;;;;;;7318207;19;9172;-73
2023/09/02 02:37:25;;;;;;;;;;;12.40;99.90;;;;;;7323133;19;9534;-73
2023/09/02 02:39:54;;;;;;;;;;;12.40;99.90;;;;;;7326111;19;9127;-73
2023/09/02 02:42:24;;;;;;;;;;;12.50;99.90;;;;;;7326532;19;9355;-73
2023/09/02 02:44:53;;;;;;;;;;;12.40;99.90;;;;;;7326418;19;9260;-73
2023/09/02 02:47:25;;;;;;;;;;;12.40;99.90;;;;;;7325929;19;9613;-73
2023/09/02 02:49:54;;;;;;;;;;;12.40;99.90;;;;;;7325336;19;9402;-73
2023/09/02 02:52:23;;;;;;;;;;;12.30;99.90;;;;;;7326427;19;9344;-73
2023/09/02 02:55:12;;;;;;;;;;;12.30;99.90;;;;;;7324219;19;9228;-73
2023/09/02 02:57:41;;;;;;;;;;;12.30;99.90;;;;;;7325987;19;8944;-73
2023/09/02 03:00:12;;;;;;;;;;;12.20;99.90;;;;;;7326225;19;9244;-73
2023/09/02 03:02:44;;;;;;;;;;;12.20;99.90;;;;;;7325277;19;9240;-73
2023/09/02 03:05:12;;;;;;;;;;;12.20;99.90;;;;;;7325616;19;9265;-73
2023/09/02 03:07:42;;;;;;;;;;;12.20;99.90;;;;;;7325572;19;10446;-73
2023/09/02 03:10:11;;;;;;;;;;;12.10;99.90;;;;;;7324442;19;9076;-73
2023/09/02 03:12:40;;;;;;;;;;;12.10;99.90;;;;;;7326050;19;9244;-73
2023/09/02 03:15:10;;;;;;;;;;;12.00;99.90;;;;;;7325870;19;9374;-73
2023/09/02 03:17:39;;;;;;;;;;;12.00;99.90;;;;;;7325629;19;9526;-73
2023/09/02 03:20:12;;;;;;;;;;;12.00;99.90;;;;;;7325291;19;9135;-72
2023/09/02 03:22:43;;;;;;;;;;;12.00;99.90;;;;;;7325899;19;10312;-73
2023/09/02 03:25:12;;;;;;;;;;;12.00;99.90;;;;;;7324995;19;9776;-73
2023/09/02 03:27:43;;;;;;;;;;;11.90;99.90;;;;;;7325413;19;9311;-73
2023/09/02 03:30:13;;;;;;;;;;;11.90;99.90;;;;;;7325065;19;10345;-73
2023/09/02 03:32:42;;;;;;;;;;;11.90;99.90;;;;;;7323871;19;9583;-73
2023/09/02 03:35:14;;;;;;;;;;;11.90;99.90;;;;;;7325692;19;9244;-73
2023/09/02 03:37:44;;;;;;;;;;;11.90;99.90;;;;;;7324916;19;9371;-73
2023/09/02 03:40:14;;;;;;;;;;;11.90;99.90;;;;;;7324129;19;9500;-73
2023/09/02 03:42:43;;;;;;;;;;;11.90;99.90;;;;;;7323764;19;9452;-73
2023/09/02 03:45:13;;;;;;;;;;;11.80;99.90;;;;;;7325094;19;9694;-73
2023/09/02 03:47:42;;;;;;;;;;;11.80;99.90;;;;;;7324166;19;10633;-72
2023/09/02 03:50:14;;;;;;;;;;;11.70;99.90;;;;;;7322284;19;9301;-73
2023/09/02 03:52:43;;;;;;;;;;;11.60;99.90;;;;;;7324858;19;9439;-73
2023/09/02 03:55:12;;;;;;;;;;;11.70;99.90;;;;;;7324307;19;9220;-73
2023/09/02 03:57:41;;;;;;;;;;;11.60;99.90;;;;;;7322145;19;10393;-73
2023/09/02 04:00:12;;;;;;;;;;;11.60;99.90;;;;;;7324738;19;9284;-73
2023/09/02 04:02:49;;;;;;;;;;;11.70;99.90;;;;;;7324517;19;9072;-73
2023/09/02 04:05:21;;;;;;;;;;;11.70;99.90;;;;;;7324161;19;9132;-74
2023/09/02 04:07:50;;;;;;;;;;;11.70;99.90;;;;;;7324794;19;9112;-73
2023/09/02 04:10:19;;;;;;;;;;;11.70;99.90;;;;;;7324489;19;9274;-73
2023/09/02 04:13:08;;;;;;;;;;;11.80;99.90;;;;;;7322004;19;9496;-73
2023/09/02 04:15:58;;;;;;;;;;;11.80;99.90;;;;;;7322418;19;9679;-74
2023/09/02 04:18:27;;;;;;;;;;;11.90;99.90;;;;;;7323829;19;9476;-74
2023/09/02 04:21:01;;;;;;;;;;;11.90;99.90;;;;;;7323656;19;9304;-73
2023/09/02 04:23:29;;;;;;;;;;;11.90;99.90;;;;;;7323973;19;9229;-73
2023/09/02 04:26:00;;;;;;;;;;;11.90;99.90;;;;;;7323637;19;9176;-73
2023/09/02 04:28:49;;;;;;;;;;;12.00;99.90;;;;;;7321423;19;9544;-73
2023/09/02 04:31:18;;;;;;;;;;;12.00;99.90;;;;;;7322532;19;9333;-74
2023/09/02 04:33:47;;;;;;;;;;;12.00;99.90;;;;;;7323813;19;9413;-73
2023/09/02 04:36:39;;;;;;;;;;;12.00;99.90;;;;;;7322254;19;9316;-73
2023/09/02 04:39:08;;;;;;;;;;;12.10;99.90;;;;;;7323193;19;9110;-73
2023/09/02 04:41:39;;;;;;;;;;;12.10;99.90;;;;;;7323596;19;9264;-74
2023/09/02 04:44:09;;;;;;;;;;;12.10;99.90;;;;;;7323180;19;9417;-73
2023/09/02 04:46:38;;;;;;;;;;;12.10;99.90;;;;;;7320800;19;9177;-74
2023/09/02 04:49:07;;;;;;;;;;;12.10;99.90;;;;;;7322249;19;9237;-73
2023/09/02 04:51:38;;;;;;;;;;;12.10;99.90;;;;;;7321005;19;9234;-73
2023/09/02 04:54:08;;;;;;;;;;;12.10;99.90;;;;;;7323882;19;9472;-74
2023/09/02 04:56:40;;;;;;;;;;;12.10;99.90;;;;;;7322818;19;9228;-73
2023/09/02 04:59:09;;;;;;;;;;;12.10;99.90;;;;;;7323718;19;9404;-73
2023/09/02 05:01:38;;;;;;;;;;;12.10;99.90;;;;;;7322541;19;9634;-73
2023/09/02 05:04:07;;;;;;;;;;;12.10;99.90;;;;;;7322255;19;9222;-73
2023/09/02 05:06:38;;;;;;;;;;;12.10;99.90;;;;;;7322169;19;10315;-73
2023/09/02 05:09:09;;;;;;;;;;;12.10;99.90;;;;;;7320668;19;10559;-73
2023/09/02 05:11:38;;;;;;;;;;;12.10;99.90;;;;;;7322272;19;9241;-73
2023/09/02 05:14:09;;;;;;;;;;;12.20;99.90;;;;;;7322835;19;9241;-73
2023/09/02 05:16:38;;;;;;;;;;;12.10;99.90;;;;;;7322543;19;9449;-73
2023/09/02 05:19:07;;;;;;;;;;;12.20;99.90;;;;;;7322319;19;9221;-73
2023/09/02 05:21:39;;;;;;;;;;;12.20;99.90;;;;;;7321537;19;9229;-74
2023/09/02 05:24:08;;;;;;;;;;;12.20;99.90;;;;;;7322088;19;9301;-73
2023/09/02 05:26:38;;;;;;;;;;;12.20;99.90;;;;;;7322103;19;9456;-73
2023/09/02 05:29:27;;;;;;;;;;;12.30;99.90;;;;;;7319831;19;9093;-73
2023/09/02 05:31:55;;;;;;;;;;;12.30;99.90;;;;;;7322168;19;9246;-73
2023/09/02 05:34:24;;;;;;;;;;;12.20;99.90;;;;;;7321367;19;9747;-73
2023/09/02 05:36:56;;;;;;;;;;;12.30;99.90;;;;;;7321745;19;9225;-73
2023/09/02 05:39:25;;;;;;;;;;;12.30;99.90;;;;;;7321029;19;9468;-73
2023/09/02 05:41:54;;;;;;;;;;;12.30;99.90;;;;;;7321235;19;9471;-73
2023/09/02 05:44:24;;;;;;;;;;;12.40;99.90;;;;;;7321799;19;10318;-73
2023/09/02 05:46:53;;;;;;;;;;;12.40;99.90;;;;;;7321476;19;9619;-73
2023/09/02 05:49:23;;;;;;;;;;;12.40;99.90;;;;;;7320632;19;9323;-73
2023/09/02 05:51:52;;;;;;;;;;;12.40;99.90;;;;;;7320759;19;9463;-73
2023/09/02 05:54:23;;;;;;;;;;;12.40;99.90;;;;;;7321242;19;9344;-74
2023/09/02 05:56:52;;;;;;;;;;;12.50;99.90;;;;;;7320761;19;9165;-73
2023/09/02 05:59:41;;;;;;;;;;;12.50;99.90;;;;;;7319808;19;9480;-74
2023/09/02 06:02:10;;;;;;;;;;;12.50;99.90;;;;;;7321071;19;10359;-73
2023/09/02 06:04:39;;;;;;;;;;;12.50;99.90;;;;;;7321113;19;9522;-73
2023/09/02 06:07:08;;;;;;;;;;;12.50;99.90;;;;;;7320760;19;8944;-73
2023/09/02 06:09:40;;;;;;;;;;;12.50;99.90;;;;;;7320603;19;9303;-73
2023/09/02 06:12:10;;;;;;;;;;;12.50;99.90;;;;;;7322294;19;9236;-74
2023/09/02 06:14:39;;;;;;;;;;;12.50;99.90;;;;;;7326578;19;9256;-73
2023/09/02 06:17:08;;;;;;;;;;;12.60;99.90;;;;;;7327916;19;9274;-73
2023/09/02 06:19:37;;;;;;;;;;;12.60;99.90;;;;;;7326433;19;9469;-73
2023/09/02 06:22:06;;;;;;;;;;;12.70;99.90;;;;;;7326916;19;9452;-73
2023/09/02 06:24:59;;;;;;;;;;;12.80;99.90;;;;;;7324897;19;9479;-73
2023/09/02 06:27:29;;;;;;;;;;;12.80;99.90;;;;;;7326778;19;9476;-73
2023/09/02 06:29:58;;;;;;;;;;;13.00;99.90;;;;;;7325306;19;9260;-73
2023/09/02 06:32:27;;;;;;;;;;;13.00;99.90;;;;;;7326243;19;9264;-73
2023/09/02 06:34:57;;;;;;;;;;;13.20;99.90;;;;;;7325590;19;8998;-73
2023/09/02 06:37:28;;;;;;;;;;;13.20;99.90;;;;;;7326500;19;9296;-73
2023/09/02 06:40:00;;;;;;;;;;;13.30;99.90;;;;;;7326934;19;9456;-73
2023/09/02 06:42:29;;;;;;;;;;;13.40;99.90;;;;;;7326530;19;9587;-73
2023/09/02 06:44:59;;;;;;;;;;;13.50;99.90;;;;;;7325814;19;9212;-73
2023/09/02 06:47:28;;;;;;;;;;;13.60;99.90;;;;;;7326052;19;9509;-73
2023/09/02 06:49:57;;;;;;;;;;;13.70;99.90;;;;;;7324485;19;9722;-73
2023/09/02 06:52:26;;;;;;;;;;;13.80;99.90;;;;;;7326815;19;9325;-73
2023/09/02 06:54:55;;;;;;;;;;;13.80;99.90;;;;;;7325267;19;9610;-73
2023/09/02 06:57:26;;;;;;;;;;;13.90;99.90;;;;;;7325664;19;9245;-73
2023/09/02 06:59:55;;;;;;;;;;;14.00;99.90;;;;;;7326976;19;8944;-74
2023/09/02 07:02:24;;;;;;;;;;;14.10;99.90;;;;;;7325325;19;9500;-73
2023/09/02 07:04:53;;;;;;;;;;;14.20;99.90;;;;;;7326338;19;9632;-73
2023/09/02 07:07:22;;;;;;;;;;;14.20;99.90;;;;;;7325363;19;10378;-74
2023/09/02 07:09:52;;;;;;;;;;;14.30;99.90;;;;;;7326901;19;9311;-73
2023/09/02 07:12:21;;;;;;;;;;;14.50;99.90;;;;;;7325281;19;9176;-73
2023/09/02 07:14:53;;;;;;;;;;;14.60;99.90;;;;;;7326278;19;9389;-73
2023/09/02 07:17:22;;;;;;;;;;;14.60;99.90;;;;;;7325038;19;9303;-73
2023/09/02 07:19:50;;;;;;;;;;;14.70;99.90;;;;;;7325195;19;9174;-73
2023/09/02 07:22:20;;;;;;;;;;;14.90;99.90;;;;;;7325112;19;9272;-73
2023/09/02 07:25:10;;;;;;;;;;;15.00;99.90;;;;;;7321865;19;9278;-73
2023/09/02 07:27:39;;;;;;;;;;;15.00;99.90;;;;;;7324943;19;9253;-73
2023/09/02 07:30:12;;;;;;;;;;;15.20;99.90;;;;;;7324837;19;9640;-73
2023/09/02 07:32:41;;;;;;;;;;;15.30;99.90;;;;;;7325824;19;9445;-73
2023/09/02 07:35:10;;;;;;;;;;;15.50;99.90;;;;;;7325362;19;9503;-73
2023/09/02 07:37:39;;;;;;;;;;;15.70;99.90;;;;;;7324089;19;9325;-73
2023/09/02 07:40:28;;;;;;;;;;;16.00;99.90;;;;;;7323402;19;9341;-73
2023/09/02 07:42:57;;;;;;;;;;;16.30;99.90;;;;;;7325417;19;9358;-73
2023/09/02 07:45:29;;;;;;;;;;;16.60;99.90;;;;;;7325021;19;9109;-73
2023/09/02 07:47:58;;;;;;;;;;;16.80;99.90;;;;;;7324882;19;8945;-73
2023/09/02 07:50:27;;;;;;;;;;;16.80;99.90;;;;;;7323820;19;9352;-73
2023/09/02 07:52:56;;;;;;;;;;;16.90;99.90;;;;;;7324495;19;9177;-73
2023/09/02 07:55:26;;;;;;;;;;;17.00;99.90;;;;;;7324991;19;9316;-73
2023/09/02 07:57:57;;;;;;;;;;;17.30;99.90;;;;;;7324269;19;9327;-73
2023/09/02 08:00:28;;;;;;;;;;;17.60;99.90;;;;;;7325171;19;9381;-73
2023/09/02 08:02:57;;;;;;;;;;;17.70;99.90;;;;;;7324057;19;9177;-73
2023/09/02 08:05:26;;;;;;;;;;;17.80;99.90;;;;;;7325100;19;9253;-74
2023/09/02 08:08:16;;;;;;;;;;;17.90;99.90;;;;;;7322811;19;9221;-73
2023/09/02 08:10:45;;;;;;;;;;;17.90;99.90;;;;;;7324599;19;9224;-73
2023/09/02 08:13:14;;;;;;;;;;;18.00;99.90;;;;;;7324265;19;9456;-73
2023/09/02 08:15:46;;;;;;;;;;;18.10;99.90;;;;;;7324936;19;9185;-73
2023/09/02 08:18:15;;;;;;;;;;;17.90;99.90;;;;;;7323839;19;9248;-73
2023/09/02 08:20:44;;;;;;;;;;;17.90;99.90;;;;;;7323430;19;9135;-73
2023/09/02 08:23:13;;;;;;;;;;;17.80;99.90;;;;;;7321790;19;9260;-73
2023/09/02 08:25:41;;;;;;;;;;;17.80;99.90;;;;;;7323183;19;9232;-73
2023/09/02 08:28:10;;;;;;;;;;;17.80;99.90;;;;;;7323387;19;9240;-74
2023/09/02 08:30:45;;;;;;;;;;;17.80;99.90;;;;;;7323204;19;9437;-73
2023/09/02 08:33:15;;;;;;;;;;;17.90;99.90;;;;;;7323005;19;11036;-74
2023/09/02 08:35:44;;;;;;;;;;;18.10;99.90;;;;;;7322176;19;9185;-74
2023/09/02 08:38:13;;;;;;;;;;;18.10;99.90;;;;;;7323967;19;9619;-73
2023/09/02 08:40:46;;;;;;;;;;;18.20;99.90;;;;;;7322919;19;11141;-73
2023/09/02 08:43:17;;;;;;;;;;;18.30;99.90;;;;;;7323375;19;9191;-73
2023/09/02 08:45:54;;;;;;;;;;;18.20;99.90;;;;;;7322506;19;9297;-74
2023/09/02 08:48:26;;;;;;;;;;;18.40;99.90;;;;;;7322399;19;9501;-73
2023/09/02 08:50:56;;;;;;;;;;;18.50;99.90;;;;;;7322368;19;9230;-73
2023/09/02 08:53:28;;;;;;;;;;;18.60;99.90;;;;;;7323380;19;9457;-73
2023/09/02 08:56:02;;;;;;;;;;;18.50;99.90;;;;;;7323056;19;9248;-73
2023/09/02 08:58:32;;;;;;;;;;;18.60;99.90;;;;;;7322968;19;11337;-73
2023/09/02 09:01:05;;;;;;;;;;;18.70;99.90;;;;;;7322964;19;9163;-73
2023/09/02 09:03:34;;;;;;;;;;;18.70;99.90;;;;;;7322074;19;11298;-73
2023/09/02 09:06:10;;;;;;;;;;;18.90;99.90;;;;;;7322586;19;9304;-73
2023/09/02 09:08:40;;;;;;;;;;;19.00;99.90;;;;;;7322111;19;8944;-73
2023/09/02 09:11:09;;;;;;;;;;;19.00;99.90;;;;;;7322607;19;10800;-73
2023/09/02 09:13:46;;;;;;;;;;;19.00;99.90;;;;;;7322209;19;9609;-73
2023/09/02 09:16:31;;;;;;;;;;;19.00;99.90;;;;;;7322413;19;9262;-73
2023/09/02 09:19:00;;;;;;;;;;;19.10;99.90;;;;;;7322783;19;9287;-73
2023/09/02 09:21:29;;;;;;;;;;;19.20;99.90;;;;;;7321415;19;9248;-74
2023/09/02 09:23:58;;;;;;;;;;;19.40;99.90;;;;;;7322299;19;9182;-73
2023/09/02 09:26:28;;;;;;;;;;;19.40;99.90;;;;;;7321924;19;9461;-73
2023/09/02 09:28:58;;;;;;;;;;;19.60;99.90;;;;;;7322219;19;10746;-73
2023/09/02 09:31:30;;;;;;;;;;;19.50;99.90;;;;;;7320848;19;9449;-73
2023/09/02 09:34:01;;;;;;;;;;;19.70;99.90;;;;;;7321165;19;9174;-73
2023/09/02 09:36:32;;;;;;;;;;;19.80;99.90;;;;;;7320633;19;9515;-73
2023/09/02 09:39:21;;;;;;;;;;;19.90;99.90;;;;;;7320154;19;9222;-73
2023/09/02 09:41:50;;;;;;;;;;;20.00;99.90;;;;;;7322080;19;9307;-73
2023/09/02 09:44:20;;;;;;;;;;;20.10;99.90;;;;;;7321837;19;9263;-73
2023/09/02 09:46:53;;;;;;;;;;;20.20;99.90;;;;;;7322829;19;9267;-73
2023/09/02 09:49:27;;;;;;;;;;;20.20;99.90;;;;;;7328285;19;9275;-73
2023/09/02 09:52:12;;;;;;;;;;;19.80;99.80;;;;;;7327466;19;9220;-74
2023/09/02 09:54:45;;;;;;;;;;;19.80;99.90;;;;;;7326846;19;9256;-74
2023/09/02 09:57:19;;;;;;;;;;;19.80;99.20;;;;;;7328998;19;9165;-74
2023/09/02 09:59:55;;;;;;;;;;;19.60;99.30;;;;;;7326714;19;9237;-73
2023/09/02 10:02:27;;;;;;;;;;;19.50;99.90;;;;;;7327703;19;9217;-74
2023/09/02 10:04:57;;;;;;;;;;;19.50;99.90;;;;;;7327896;19;9429;-74
2023/09/02 10:08:00;;;;;;;;;;;19.80;99.90;;;;;;7325680;19;9514;-74
2023/09/02 10:10:31;;;;;;;;;;;20.10;99.90;;;;;;7326944;19;9155;-74
2023/09/02 10:13:01;;;;;;;;;;;20.40;99.90;;;;;;7327394;19;10756;-74
2023/09/02 10:15:30;;;;;;;;;;;20.70;99.90;;;;;;7327237;19;9201;-74
2023/09/02 10:18:04;;;;;;;;;;;20.90;98.80;;;;;;7327832;19;9339;-74
2023/09/02 10:20:35;;;;;;;;;;;21.00;99.00;;;;;;7327660;19;9204;-74
2023/09/02 10:23:25;;;;;;;;;;;21.10;96.90;;;;;;7325746;19;10871;-74
2023/09/02 10:26:21;;;;;;;;;;;21.20;97.60;;;;;;7325733;19;10131;-73
2023/09/02 10:28:53;;;;;;;;;;;21.50;96.60;;;;;;7326724;19;9278;-73
2023/09/02 10:31:24;;;;;;;;;;;21.50;94.40;;;;;;7327475;19;9229;-73
2023/09/02 10:34:06;;;;;;;;;;;21.60;93.50;;;;;;7326794;19;9554;-74
2023/09/02 10:36:41;;;;;;;;;;;21.50;93.20;;;;;;7326512;19;9576;-73
2023/09/02 10:39:19;;;;;;;;;;;21.50;93.20;;;;;;7327050;19;9417;-74
2023/09/02 10:41:51;;;;;;;;;;;21.30;93.10;;;;;;7326457;19;10395;-74
2023/09/02 10:44:20;;;;;;;;;;;21.30;92.80;;;;;;7326492;19;9279;-74
2023/09/02 10:46:50;;;;;;;;;;;21.30;92.90;;;;;;7326439;19;9443;-74
2023/09/02 10:49:23;;;;;;;;;;;21.20;92.30;;;;;;7326565;19;9449;-73
2023/09/02 10:51:54;;;;;;;;;;;21.30;93.20;;;;;;7325276;19;9489;-74
2023/09/02 10:54:22;;;;;;;;;;;21.20;92.00;;;;;;7326364;19;9122;-74
2023/09/02 10:56:54;;;;;;;;;;;21.00;91.00;;;;;;7326000;19;9593;-74
2023/09/02 10:59:32;;;;;;;;;;;21.20;91.20;;;;;;7325398;19;8962;-74
2023/09/02 11:02:00;;;;;;;;;;;21.40;92.80;;;;;;7325647;19;9213;-74
2023/09/02 11:05:02;;;;;;;;;;;21.40;90.50;;;;;;7325658;19;9265;-74
2023/09/02 11:07:33;;;;;;;;;;;21.20;89.10;;;;;;7325090;19;8944;-74
2023/09/02 11:10:04;;;;;;;;;;;21.10;89.80;;;;;;7325811;19;9609;-74
2023/09/02 11:12:33;;;;;;;;;;;21.10;88.00;;;;;;7326269;19;9545;-74
2023/09/02 11:15:22;;;;;;;;;;;21.30;86.40;;;;;;7323987;19;9515;-74
2023/09/02 11:17:51;;;;;;;;;;;21.50;88.10;;;;;;7325414;19;9390;-74
2023/09/02 11:20:26;;;;;;;;;;;21.30;90.80;;;;;;7324819;19;11501;-74
2023/09/02 11:22:59;;;;;;;;;;;21.20;92.30;;;;;;7325346;19;10385;-74
2023/09/02 11:25:31;;;;;;;;;;;20.70;91.50;;;;;;7324960;19;9440;-74
2023/09/02 11:28:29;;;;;;;;;;;20.50;94.50;;;;;;7323779;19;9287;-74
2023/09/02 11:31:10;;;;;;;;;;;20.20;93.10;;;;;;7324832;19;10343;-74
2023/09/02 11:34:00;;;;;;;;;;;20.10;93.60;;;;;;7323034;19;9479;-74
2023/09/02 11:36:51;;;;;;;;;;;20.20;94.50;;;;;;7324456;19;9553;-74
2023/09/02 11:39:20;;;;;;;;;;;20.30;94.30;;;;;;7325436;19;9288;-73
2023/09/02 11:41:49;;;;;;;;;;;20.50;94.40;;;;;;7325698;19;9361;-74
2023/09/02 11:44:18;;;;;;;;;;;20.80;94.70;;;;;;7324905;19;9627;-74
2023/09/02 11:46:47;;;;;;;;;;;21.00;94.90;;;;;;7325150;19;10348;-74
2023/09/02 11:49:24;;;;;;;;;;;21.20;95.30;;;;;;7324235;19;9512;-74
2023/09/02 11:51:56;;;;;;;;;;;20.90;92.30;;;;;;7325020;19;9239;-74
2023/09/02 11:54:25;;;;;;;;;;;20.80;94.10;;;;;;7323566;19;9537;-74
2023/09/02 11:57:00;;;;;;;;;;;21.00;94.40;;;;;;7324626;19;9269;-74
2023/09/02 11:59:29;;;;;;;;;;;21.20;92.30;;;;;;7324658;19;9520;-74
2023/09/02 12:02:11;;;;;;;;;;;21.20;90.70;;;;;;7324668;19;9217;-74
2023/09/02 12:04:41;;;;;;;;;;;21.40;91.90;;;;;;7324618;19;9281;-74
2023/09/02 12:07:13;;;;;;;;;;;21.40;90.40;;;;;;7323795;19;9253;-74
2023/09/02 12:09:42;;;;;;;;;;;21.30;90.30;;;;;;7322146;19;9401;-74
2023/09/02 12:12:11;;;;;;;;;;;21.30;91.10;;;;;;7323230;19;9544;-74
2023/09/02 12:14:41;;;;;;;;;;;21.50;91.10;;;;;;7324903;19;9237;-74
2023/09/02 12:17:11;;;;;;;;;;;21.20;86.30;;;;;;7323849;19;9229;-73
2023/09/02 12:19:40;;;;;;;;;;;21.40;89.60;;;;;;7324271;19;9161;-74
2023/09/02 12:22:12;;;;;;;;;;;21.50;87.70;;;;;;7323533;19;9289;-74
2023/09/02 12:24:41;;;;;;;;;;;21.30;86.20;;;;;;7323430;19;9170;-73
2023/09/02 12:27:11;;;;;;;;;;;21.20;84.70;;;;;;7323429;19;10520;-74
2023/09/02 12:29:40;;;;;;;;;;;21.10;85.90;;;;;;7323297;19;9237;-74
2023/09/02 12:32:09;;;;;;;;;;;21.10;86.00;;;;;;7323554;19;9197;-74
2023/09/02 12:34:41;;;;;;;;;;;21.40;88.80;;;;;;7322626;19;9182;-74
2023/09/02 12:37:20;;;;;;;;;;;21.50;86.90;;;;;;7323298;19;9484;-74
2023/09/02 12:39:50;;;;;;;;;;;21.40;85.10;;;;;;7323715;19;9461;-74
2023/09/02 12:42:22;;;;;;;;;;;21.40;87.40;;;;;;7323439;19;9121;-74
2023/09/02 12:44:56;;;;;;;;;;;21.50;87.70;;;;;;7322852;19;9316;-74
2023/09/02 12:47:27;;;;;;;;;;;21.10;84.60;;;;;;7322238;19;9266;-74
2023/09/02 12:49:58;;;;;;;;;;;21.40;86.90;;;;;;7323398;19;9261;-74
2023/09/02 12:52:31;;;;;;;;;;;21.30;84.70;;;;;;7323130;19;9246;-74
2023/09/02 12:55:02;;;;;;;;;;;21.40;88.40;;;;;;7321320;19;9413;-73
2023/09/02 12:57:32;;;;;;;;;;;21.50;87.40;;;;;;7323818;19;9596;-74
2023/09/02 13:00:03;;;;;;;;;;;21.40;83.30;;;;;;7322727;19;9325;-74
2023/09/02 13:02:55;;;;;;;;;;;21.40;84.60;;;;;;7321739;19;9184;-73
2023/09/02 13:05:24;;;;;;;;;;;21.20;85.60;;;;;;7323002;19;9289;-74
2023/09/02 13:07:56;;;;;;;;;;;21.00;84.30;;;;;;7322703;19;9351;-74
2023/09/02 13:10:26;;;;;;;;;;;21.20;87.60;;;;;;7322958;19;10840;-74
2023/09/02 13:12:57;;;;;;;;;;;21.10;85.90;;;;;;7322699;19;9584;-74
2023/09/02 13:15:27;;;;;;;;;;;21.10;87.50;;;;;;7323191;19;8945;-73
2023/09/02 13:17:57;;;;;;;;;;;21.30;84.40;;;;;;7322540;19;9418;-74
2023/09/02 13:20:26;;;;;;;;;;;21.50;86.60;;;;;;7321693;19;8944;-73
2023/09/02 13:22:58;;;;;;;;;;;21.60;85.30;;;;;;7323077;19;9204;-74
2023/09/02 13:25:29;;;;;;;;;;;21.50;84.30;;;;;;7321876;19;9161;-75
2023/09/02 13:27:58;;;;;;;;;;;21.60;87.40;;;;;;7321814;19;9600;-73
2023/09/02 13:30:48;;;;;;;;;;;21.60;85.10;;;;;;7319925;19;10162;-75
2023/09/02 13:33:17;;;;;;;;;;;21.40;82.70;;;;;;7321278;19;9190;-74
2023/09/02 13:35:49;;;;;;;;;;;21.30;84.00;;;;;;7320345;19;10201;-74
2023/09/02 13:38:26;;;;;;;;;;;21.40;83.70;;;;;;7322541;19;10405;-74
2023/09/02 13:40:55;;;;;;;;;;;21.10;85.60;;;;;;7321541;19;9467;-74
2023/09/02 13:43:26;;;;;;;;;;;20.80;88.80;;;;;;7319897;19;11196;-74
2023/09/02 13:45:55;;;;;;;;;;;20.80;89.90;;;;;;7321637;19;9263;-74
2023/09/02 13:48:25;;;;;;;;;;;20.90;89.80;;;;;;7321596;19;9459;-74
2023/09/02 13:50:59;;;;;;;;;;;20.90;90.00;;;;;;7321619;19;9232;-74
2023/09/02 13:53:30;;;;;;;;;;;20.90;90.20;;;;;;7321246;19;9399;-73
2023/09/02 13:56:00;;;;;;;;;;;20.80;90.10;;;;;;7321676;19;11343;-74
2023/09/02 13:58:37;;;;;;;;;;;21.10;90.60;;;;;;7321040;19;9526;-74
2023/09/02 14:01:27;;;;;;;;;;;21.10;87.40;;;;;;7320197;19;9634;-74
2023/09/02 14:03:56;;;;;;;;;;;21.00;87.70;;;;;;7320902;19;9160;-74
2023/09/02 14:06:25;;;;;;;;;;;21.10;91.10;;;;;;7321634;19;9468;-74
2023/09/02 14:08:56;;;;;;;;;;;21.30;91.60;;;;;;7320629;19;9553;-74
2023/09/02 14:11:25;;;;;;;;;;;21.20;90.90;;;;;;7321325;19;9221;-74
2023/09/02 14:13:55;;;;;;;;;;;21.30;91.00;;;;;;7321230;19;9248;-74
2023/09/02 14:16:44;;;;;;;;;;;21.10;90.40;;;;;;7318972;19;9500;-74
2023/09/02 14:19:13;;;;;;;;;;;21.30;91.60;;;;;;7320863;19;9549;-74
2023/09/02 14:21:42;;;;;;;;;;;21.20;90.00;;;;;;7320529;19;9468;-74
2023/09/02 14:24:13;;;;;;;;;;;21.10;90.10;;;;;;7320393;19;10881;-74
2023/09/02 14:26:44;;;;;;;;;;;21.20;90.50;;;;;;7319606;19;9206;-74
2023/09/02 14:29:13;;;;;;;;;;;21.30;90.50;;;;;;7319886;19;11405;-74
2023/09/02 14:31:42;;;;;;;;;;;21.20;90.10;;;;;;7320186;19;9084;-74
2023/09/02 14:34:11;;;;;;;;;;;21.30;88.30;;;;;;7324915;19;10208;-74
2023/09/02 14:37:00;;;;;;;;;;;20.90;87.50;;;;;;7325958;19;9972;-74
2023/09/02 14:39:34;;;;;;;;;;;20.90;90.20;;;;;;7326269;19;9263;-74
2023/09/02 14:42:04;;;;;;;;;;;20.90;88.60;;;;;;7326420;19;9476;-74
2023/09/02 14:44:57;;;;;;;;;;;20.90;90.10;;;;;;7324190;19;9320;-75
2023/09/02 14:47:27;;;;;;;;;;;21.20;90.60;;;;;;7326643;19;9402;-73
2023/09/02 14:49:57;;;;;;;;;;;21.40;89.60;;;;;;7325928;19;9255;-74
2023/09/02 14:52:27;;;;;;;;;;;21.60;89.20;;;;;;7327257;19;10464;-75
2023/09/02 14:54:59;;;;;;;;;;;21.70;88.00;;;;;;7325085;19;9220;-74
2023/09/02 14:57:28;;;;;;;;;;;21.60;84.00;;;;;;7326016;19;9146;-74
2023/09/02 14:59:58;;;;;;;;;;;21.50;86.30;;;;;;7326481;19;9526;-74